Time;durP1;ratioP1;P1;durP2;ratioP2;P2;SDS_P1;SDS_P2;PMS_P1;PMS_P2;Temp;Humidity;BMP_temperature;BMP_pressure;BME280_temperature;BME280_humidity;BME280_pressure;Samples;Min_cycle;Max_cycle;Signal;HPM_P1;HPM_P2
2022/02/14 00:01:21;;;;;;;6.30;2.92;;;;;;;3.89;56.20;96762.34;5085858;28;20105;-63
2022/02/14 00:03:48;;;;;;;5.82;3.15;;;;;;;3.89;56.21;96759.69;5085293;28;20032;-63
2022/02/14 00:06:14;;;;;;;7.53;3.45;;;;;;;3.90;55.78;96760.47;5085693;28;20036;-64
2022/02/14 00:08:44;;;;;;;6.00;2.60;;;;;;;3.89;55.91;96757.00;5073445;28;20047;-64
2022/02/14 00:11:12;;;;;;;9.32;3.13;;;;;;;3.94;55.20;96758.19;5083674;28;20036;-63
2022/02/14 00:13:38;;;;;;;7.38;3.72;;;;;;;3.96;55.05;96751.56;5065851;28;20041;-63
2022/02/14 00:16:05;;;;;;;9.88;4.13;;;;;;;3.95;54.70;96747.25;5064412;28;20090;-64
2022/02/14 00:18:32;;;;;;;13.82;5.78;;;;;;;3.96;54.40;96740.84;5067665;28;20053;-63
2022/02/14 00:20:59;;;;;;;12.95;5.88;;;;;;;3.94;54.51;96740.25;5085624;28;20609;-63
2022/02/14 00:23:26;;;;;;;11.40;5.72;;;;;;;3.96;54.15;96735.50;5067574;28;20516;-63
2022/02/14 00:25:55;;;;;;;9.70;4.15;;;;;;;3.94;53.85;96726.84;5065704;28;20045;-63
2022/02/14 00:28:23;;;;;;;6.45;3.17;;;;;;;3.98;53.54;96722.69;5065056;28;20075;-63
2022/02/14 00:30:50;;;;;;;6.05;3.05;;;;;;;3.98;53.30;96721.88;5066190;28;20044;-64
2022/02/14 00:33:17;;;;;;;5.30;2.75;;;;;;;4.00;52.85;96715.25;5083323;28;20043;-64
2022/02/14 00:35:43;;;;;;;6.45;3.53;;;;;;;4.07;52.69;96711.66;5081200;28;20039;-63
2022/02/14 00:38:12;;;;;;;4.97;2.45;;;;;;;4.07;52.55;96700.94;5085457;28;20044;-64
2022/02/14 00:40:38;;;;;;;4.57;1.92;;;;;;;4.19;51.22;96699.13;5086139;28;20098;-64
2022/02/14 00:43:05;;;;;;;5.78;2.83;;;;;;;4.20;51.42;96703.44;5073774;28;20047;-63
2022/02/14 00:45:32;;;;;;;6.35;3.05;;;;;;;4.26;50.96;96701.72;5080142;28;20049;-64
2022/02/14 00:47:58;;;;;;;7.28;2.58;;;;;;;4.35;50.18;96692.28;5065169;28;20102;-64
2022/02/14 00:50:25;;;;;;;8.25;3.47;;;;;;;4.32;50.48;96694.63;5068273;28;20052;-63
2022/02/14 00:52:52;;;;;;;6.60;2.45;;;;;;;4.38;49.72;96693.69;5085844;28;20040;-63
2022/02/14 00:55:18;;;;;;;5.82;2.30;;;;;;;4.39;49.74;96688.09;5070361;28;20094;-63
2022/02/14 00:57:47;;;;;;;7.82;2.45;;;;;;;4.47;49.31;96692.34;5073280;28;20090;-63
2022/02/14 01:00:14;;;;;;;9.73;2.45;;;;;;;4.41;49.48;96675.31;5093034;28;20039;-63
2022/02/14 01:02:41;;;;;;;7.40;2.67;;;;;;;4.46;48.38;96674.59;5092810;28;20044;-63
2022/02/14 01:05:08;;;;;;;4.63;2.70;;;;;;;4.46;49.12;96674.59;5072448;28;20044;-63
2022/02/14 01:07:35;;;;;;;5.40;2.40;;;;;;;4.49;48.68;96674.16;5064772;28;20048;-63
2022/02/14 01:10:09;;;;;;;5.55;2.50;;;;;;;4.45;48.79;96667.63;5076639;28;20618;-63
2022/02/14 01:12:37;;;;;;;5.65;2.35;;;;;;;4.44;48.58;96671.34;5079502;28;20040;-63
2022/02/14 01:15:05;;;;;;;5.93;2.50;;;;;;;4.46;49.09;96673.81;5072642;28;20033;-63
2022/02/14 01:17:33;;;;;;;4.97;2.30;;;;;;;4.46;48.29;96671.13;5064933;28;20519;-63
2022/02/14 01:20:05;;;;;;;7.88;2.67;;;;;;;4.47;48.70;96668.22;5074427;28;20052;-63
2022/02/14 01:22:32;;;;;;;6.10;2.30;;;;;;;4.42;48.59;96671.56;5081947;28;20036;-63
2022/02/14 01:25:01;;;;;;;4.72;2.50;;;;;;;4.41;48.15;96667.28;5065171;28;20044;-63
2022/02/14 01:27:28;;;;;;;5.05;2.38;;;;;;;4.34;48.40;96650.47;5067940;28;20048;-63
2022/02/14 01:29:54;;;;;;;4.25;2.17;;;;;;;4.39;48.17;96653.25;5076883;28;20044;-63
2022/02/14 01:32:22;;;;;;;5.75;2.97;;;;;;;4.47;47.72;96654.81;5086560;28;20047;-63
2022/02/14 01:34:50;;;;;;;4.10;1.60;;;;;;;4.43;47.94;96651.75;5077492;28;20569;-63
2022/02/14 01:37:17;;;;;;;5.15;2.13;;;;;;;4.44;48.01;96655.25;5086235;28;20040;-63
2022/02/14 01:39:44;;;;;;;4.90;2.50;;;;;;;4.37;47.96;96638.47;5083328;28;20059;-63
2022/02/14 01:42:11;;;;;;;3.20;1.85;;;;;;;4.35;47.93;96641.38;5087639;28;20044;-63
2022/02/14 01:44:43;;;;;;;4.70;1.70;;;;;;;4.37;47.95;96652.69;5088271;28;20027;-63
2022/02/14 01:47:19;;;;;;;4.00;2.15;;;;;;;4.43;47.49;96641.03;5075977;28;20037;-63
2022/02/14 01:49:48;;;;;;;4.40;1.88;;;;;;;4.34;47.52;96639.75;5082481;28;20047;-63
2022/02/14 01:52:15;;;;;;;4.60;2.10;;;;;;;4.39;47.29;96642.53;5088267;28;20056;-63
2022/02/14 01:54:45;;;;;;;5.32;2.33;;;;;;;4.42;46.82;96630.53;5086738;28;20066;-63
2022/02/14 01:57:14;;;;;;;4.10;1.88;;;;;;;4.37;47.25;96630.41;5081259;28;20032;-63
2022/02/14 01:59:41;;;;;;;3.83;2.15;;;;;;;4.35;46.78;96627.97;5093067;28;20050;-63
2022/02/14 02:02:09;;;;;;;3.75;1.80;;;;;;;4.47;46.08;96628.00;5100201;28;20056;-63
2022/02/14 02:04:36;;;;;;;5.25;2.10;;;;;;;4.42;46.41;96626.00;5071316;28;20040;-63
2022/02/14 02:07:05;;;;;;;5.10;2.20;;;;;;;4.43;46.10;96624.16;5068003;28;20694;-63
2022/02/14 02:09:31;;;;;;;3.65;1.73;;;;;;;4.48;46.07;96618.09;5069677;28;20505;-63
2022/02/14 02:14:43;;;;;;;8.40;2.03;;;;;;;4.41;46.09;96594.06;5083562;28;20095;-63
2022/02/14 02:17:10;;;;;;;7.88;2.15;;;;;;;4.41;45.83;96602.94;5075518;28;20044;-63
2022/02/14 02:19:37;;;;;;;3.97;1.98;;;;;;;4.47;45.21;96595.00;5087543;28;20048;-63
2022/02/14 02:22:03;;;;;;;4.15;2.20;;;;;;;4.54;45.18;96591.16;5075807;28;20529;-63
2022/02/14 02:24:40;;;;;;;4.82;1.98;;;;;;;4.59;44.79;96589.66;5092816;28;20493;-63
2022/02/14 02:27:07;;;;;;;4.40;1.95;;;;;;;4.48;45.96;96578.69;5073169;28;20055;-63
2022/02/14 02:29:38;;;;;;;4.20;1.92;;;;;;;4.40;45.66;96582.53;5078418;28;20040;-63
2022/02/14 02:32:06;;;;;;;4.10;1.95;;;;;;;4.40;45.90;96584.41;5075907;28;20040;-63
2022/02/14 02:34:41;;;;;;;3.95;1.88;;;;;;;4.39;45.29;96569.38;5087438;28;20047;-63
2022/02/14 02:37:10;;;;;;;4.55;1.95;;;;;;;4.37;45.36;96574.97;5076670;28;20040;-63
2022/02/14 02:39:38;;;;;;;5.18;2.33;;;;;;;4.33;45.27;96568.44;5082699;28;20577;-63
2022/02/14 02:42:06;;;;;;;3.13;1.80;;;;;;;4.29;45.65;96567.25;5085206;28;20805;-63
2022/02/14 02:44:33;;;;;;;4.53;2.40;;;;;;;4.14;46.27;96565.03;5077831;28;20032;-63
2022/02/14 02:47:02;;;;;;;5.05;2.03;;;;;;;4.09;46.09;96554.19;5067698;28;20086;-63
2022/02/14 02:49:28;;;;;;;4.18;1.80;;;;;;;4.02;46.40;96557.78;5069145;28;20048;-63
2022/02/14 02:51:55;;;;;;;3.85;1.88;;;;;;;3.98;46.32;96551.25;5087214;28;20040;-63
2022/02/14 02:54:23;;;;;;;3.42;1.90;;;;;;;3.98;45.87;96537.06;5086168;28;20048;-63
2022/02/14 02:56:52;;;;;;;9.27;2.25;;;;;;;3.94;46.03;96539.34;5082091;28;20553;-63
2022/02/14 02:59:19;;;;;;;4.03;1.83;;;;;;;3.92;46.21;96533.41;5086826;28;20040;-63
2022/02/14 03:01:46;;;;;;;4.63;1.65;;;;;;;3.83;46.69;96538.28;5087167;28;20523;-63
2022/02/14 03:04:14;;;;;;;5.03;1.80;;;;;;;3.87;46.17;96534.09;5087029;28;20048;-63
2022/02/14 03:06:41;;;;;;;4.22;1.90;;;;;;;3.90;46.07;96538.19;5081458;28;20051;-63
2022/02/14 03:09:09;;;;;;;4.15;1.80;;;;;;;3.92;46.06;96535.28;5087135;28;20048;-63
2022/02/14 03:11:37;;;;;;;3.13;1.60;;;;;;;3.88;45.96;96521.53;5077635;28;20037;-63
2022/02/14 03:14:04;;;;;;;5.03;2.20;;;;;;;3.89;45.72;96523.16;5066453;28;20381;-64
2022/02/14 03:16:32;;;;;;;4.15;1.73;;;;;;;3.94;45.38;96519.81;5077120;28;20079;-63
2022/02/14 03:18:59;;;;;;;4.93;1.70;;;;;;;4.01;45.17;96528.53;5066185;28;20052;-63
2022/02/14 03:21:25;;;;;;;3.50;1.52;;;;;;;4.02;44.82;96525.63;5067361;28;20052;-63
2022/02/14 03:23:53;;;;;;;4.35;1.95;;;;;;;3.98;45.22;96527.13;5068038;28;20548;-63
2022/02/14 03:26:21;;;;;;;2.40;1.20;;;;;;;3.97;45.26;96514.78;5083286;28;20040;-63
2022/02/14 03:28:50;;;;;;;4.93;1.80;;;;;;;4.07;44.79;96524.94;5086084;28;20039;-63
2022/02/14 03:31:17;;;;;;;4.63;1.65;;;;;;;4.05;45.08;96523.53;5074876;28;20045;-63
2022/02/14 03:33:44;;;;;;;4.20;1.77;;;;;;;3.94;45.59;96517.91;5086777;28;20044;-63
2022/02/14 03:36:12;;;;;;;3.97;1.83;;;;;;;3.88;45.75;96508.94;5070324;28;20043;-63
2022/02/14 03:38:40;;;;;;;4.47;2.08;;;;;;;3.91;45.62;96513.06;5065668;28;20048;-63
2022/02/14 03:41:07;;;;;;;3.92;1.73;;;;;;;3.81;46.23;96513.59;5073515;28;20164;-63
2022/02/14 03:43:33;;;;;;;4.38;1.95;;;;;;;3.75;46.35;96509.97;5086305;28;20044;-63
2022/02/14 03:46:00;;;;;;;4.18;1.52;;;;;;;3.72;46.26;96507.75;5083492;28;20411;-63
2022/02/14 03:48:27;;;;;;;4.05;1.48;;;;;;;3.72;46.29;96505.06;5066497;28;20048;-64
2022/02/14 03:50:54;;;;;;;3.75;1.63;;;;;;;3.69;45.94;96502.84;5098569;28;20649;-63
2022/02/14 03:53:21;;;;;;;3.85;1.75;;;;;;;3.68;46.72;96506.56;5085563;28;20040;-63
2022/02/14 03:55:48;;;;;;;4.15;1.85;;;;;;;3.59;46.74;96502.59;5083707;28;20101;-63
2022/02/14 03:58:14;;;;;;;4.28;1.85;;;;;;;3.62;46.66;96504.81;5079499;28;20403;-63
2022/02/14 04:00:41;;;;;;;3.63;1.63;;;;;;;3.67;46.08;96512.97;5082300;28;20041;-63
2022/02/14 04:03:10;;;;;;;4.40;1.80;;;;;;;3.79;45.34;96510.31;5083113;28;20075;-63
2022/02/14 04:05:37;;;;;;;5.20;1.95;;;;;;;3.80;45.37;96503.94;5083949;28;20036;-63
2022/02/14 04:08:04;;;;;;;3.42;1.77;;;;;;;3.81;44.83;96499.38;5065756;28;20036;-63
2022/02/14 04:10:31;;;;;;;4.10;1.67;;;;;;;3.79;44.93;96504.97;5085499;28;20047;-63
2022/02/14 04:12:57;;;;;;;5.78;1.70;;;;;;;3.73;45.28;96503.22;5086238;28;20403;-63
2022/02/14 04:15:25;;;;;;;4.10;1.90;;;;;;;3.70;44.93;96509.84;5095982;28;20067;-63
2022/02/14 04:17:51;;;;;;;4.70;1.65;;;;;;;3.71;44.64;96499.94;5085350;28;20044;-63
2022/02/14 04:20:18;;;;;;;3.30;1.20;;;;;;;3.72;44.62;96497.03;5068537;28;20050;-63
2022/02/14 04:22:44;;;;;;;6.00;1.70;;;;;;;3.69;44.63;96499.38;5066013;28;20044;-63
2022/02/14 04:25:13;;;;;;;2.90;1.35;;;;;;;3.80;43.83;96495.09;5065825;28;20064;-63
2022/02/14 04:27:41;;;;;;;3.72;1.80;;;;;;;3.88;43.48;96495.56;5067272;28;20055;-63
2022/02/14 04:30:09;;;;;;;2.75;1.25;;;;;;;3.85;43.26;96492.53;5065507;28;20055;-63
2022/02/14 04:32:36;;;;;;;2.05;1.02;;;;;;;3.82;43.16;96492.97;5078415;28;20041;-63
2022/02/14 04:35:04;;;;;;;4.50;1.60;;;;;;;3.87;42.65;96490.44;5084284;28;20048;-63
2022/02/14 04:37:31;;;;;;;3.03;1.30;;;;;;;3.92;42.24;96474.50;5072090;28;20044;-63
2022/02/14 04:39:57;;;;;;;3.63;2.00;;;;;;;3.94;42.23;96477.75;5065381;28;20439;-63
2022/02/14 04:42:24;;;;;;;2.72;1.60;;;;;;;3.90;42.23;96484.59;5085085;28;20044;-63
2022/02/14 04:44:50;;;;;;;4.80;1.92;;;;;;;4.01;41.77;96475.78;5092547;28;20058;-63
2022/02/14 04:47:17;;;;;;;4.65;1.67;;;;;;;4.01;41.87;96467.75;5092673;28;20048;-63
2022/02/14 04:49:44;;;;;;;3.15;1.42;;;;;;;3.98;41.91;96478.91;5090873;28;20410;-63
2022/02/14 04:52:10;;;;;;;5.70;1.73;;;;;;;3.99;41.88;96480.56;5085170;28;20507;-63
2022/02/14 04:54:37;;;;;;;5.40;2.08;;;;;;;3.94;41.69;96476.94;5085495;28;20047;-63
2022/02/14 04:57:05;;;;;;;4.32;1.80;;;;;;;3.93;42.22;96473.44;5076785;28;20525;-63
2022/02/14 04:59:32;;;;;;;2.60;1.40;;;;;;;3.88;42.21;96474.13;5082539;28;20051;-63
2022/02/14 05:01:59;;;;;;;2.85;1.42;;;;;;;3.85;42.20;96477.28;5075214;28;20102;-63
2022/02/14 05:04:26;;;;;;;4.30;1.58;;;;;;;3.75;42.43;96477.03;5084519;28;20045;-63
2022/02/14 05:06:53;;;;;;;4.75;1.58;;;;;;;3.72;42.82;96475.63;5075600;28;20047;-63
2022/02/14 05:09:19;;;;;;;2.58;1.40;;;;;;;3.69;42.87;96478.75;5087970;28;20044;-63
2022/02/14 05:11:46;;;;;;;4.65;2.20;;;;;;;3.73;42.78;96471.88;5089118;28;20171;-63
2022/02/14 05:14:12;;;;;;;4.47;1.83;;;;;;;3.70;42.95;96471.53;5083699;28;20059;-63
2022/02/14 05:16:39;;;;;;;5.25;1.63;;;;;;;3.72;43.15;96470.25;5076110;28;20583;-63
2022/02/14 05:19:06;;;;;;;2.83;1.40;;;;;;;3.73;43.09;96481.81;5085654;28;20503;-63
2022/02/14 05:21:32;;;;;;;4.85;1.55;;;;;;;3.74;42.97;96473.53;5076028;28;20048;-63
2022/02/14 05:23:59;;;;;;;3.95;1.80;;;;;;;3.69;43.35;96480.63;5068356;28;20056;-63
2022/02/14 05:26:26;;;;;;;5.63;1.83;;;;;;;3.65;43.57;96469.56;5069841;28;21497;-63
2022/02/14 05:28:55;;;;;;;7.43;1.92;;;;;;;3.64;43.80;96481.31;5071715;28;20051;-63
2022/02/14 05:31:22;;;;;;;3.40;1.60;;;;;;;3.59;44.01;96483.84;5089393;28;20048;-63
2022/02/14 05:33:49;;;;;;;3.88;1.30;;;;;;;3.62;43.78;96478.84;5074145;28;20053;-63
2022/02/14 05:36:18;;;;;;;4.60;1.70;;;;;;;3.58;44.06;96476.88;5087849;28;20773;-63
2022/02/14 05:38:45;;;;;;;4.18;1.67;;;;;;;3.66;43.97;96483.75;5088940;28;20075;-65
2022/02/14 05:41:12;;;;;;;3.92;1.50;;;;;;;3.68;44.24;96479.00;5080897;28;20036;-63
2022/02/14 05:43:39;;;;;;;4.00;1.35;;;;;;;3.69;44.02;96478.75;5080662;28;20040;-63
2022/02/14 05:46:13;;;;;;;3.40;1.45;;;;;;;3.79;43.96;96480.88;5088425;28;20802;-63
2022/02/14 05:48:42;;;;;;;5.35;1.75;;;;;;;3.68;44.23;96477.13;5081977;28;20052;-63
2022/02/14 05:51:10;;;;;;;2.75;1.42;;;;;;;3.63;44.56;96485.03;5088730;28;20047;-63
2022/02/14 05:53:38;;;;;;;2.70;1.10;;;;;;;3.71;44.65;96478.53;5088063;28;20036;-63
2022/02/14 05:56:06;;;;;;;3.33;1.63;;;;;;;3.69;45.03;96478.75;5087767;28;20048;-63
2022/02/14 05:58:39;;;;;;;3.50;1.80;;;;;;;3.69;45.03;96480.63;5068892;28;20044;-63
2022/02/14 06:01:06;;;;;;;4.35;1.85;;;;;;;3.70;45.01;96488.44;5087267;28;20123;-63
2022/02/14 06:03:32;;;;;;;4.30;1.65;;;;;;;3.60;45.38;96488.16;5069631;28;20111;-63
2022/02/14 06:06:00;;;;;;;4.50;1.63;;;;;;;3.56;45.57;96476.28;5069073;28;20033;-65
2022/02/14 06:08:27;;;;;;;2.85;1.38;;;;;;;3.44;45.77;96473.56;5067810;28;20062;-65
2022/02/14 06:10:53;;;;;;;5.80;1.80;;;;;;;3.41;45.90;96480.22;5067833;28;20651;-65
2022/02/14 06:13:21;;;;;;;7.25;2.15;;;;;;;3.35;46.64;96479.25;5077910;28;20044;-65
2022/02/14 06:15:47;;;;;;;5.25;2.13;;;;;;;3.25;46.73;96466.41;5076257;28;20160;-64
2022/02/14 06:18:14;;;;;;;4.63;1.98;;;;;;;3.14;47.45;96472.56;5089631;28;20040;-64
2022/02/14 06:20:41;;;;;;;6.85;2.03;;;;;;;3.20;46.90;96468.13;5086012;28;20036;-65
2022/02/14 06:23:08;;;;;;;5.72;2.03;;;;;;;3.21;47.05;96477.81;5099688;28;20093;-65
2022/02/14 06:25:35;;;;;;;4.75;1.95;;;;;;;3.22;47.38;96479.44;5081676;28;20032;-64
2022/02/14 06:28:01;;;;;;;3.47;1.52;;;;;;;3.23;47.46;96481.91;5093552;28;20043;-65
2022/02/14 06:30:30;;;;;;;4.75;2.05;;;;;;;3.20;47.34;96490.38;5084503;28;20098;-64
2022/02/14 06:32:57;;;;;;;5.80;2.00;;;;;;;3.14;47.83;96485.09;5089309;28;20043;-64
2022/02/14 06:35:24;;;;;;;5.20;2.03;;;;;;;3.06;48.31;96497.75;5075175;28;20515;-65
2022/02/14 06:37:50;;;;;;;4.60;1.77;;;;;;;3.01;48.78;96496.78;5085335;28;20051;-65
2022/02/14 06:40:18;;;;;;;5.40;2.35;;;;;;;3.06;48.28;96503.09;5067947;28;20047;-64
2022/02/14 06:42:47;;;;;;;5.53;2.28;;;;;;;3.12;48.83;96506.72;5081318;28;20052;-64
2022/02/14 06:45:16;;;;;;;7.43;1.92;;;;;;;3.02;48.53;96509.13;5083979;28;20035;-64
2022/02/14 06:47:43;;;;;;;7.80;2.38;;;;;;;2.97;48.97;96507.94;5068311;28;20534;-65
2022/02/14 06:50:11;;;;;;;3.97;1.95;;;;;;;2.99;49.06;96511.19;5078992;28;20499;-64
2022/02/14 06:52:38;;;;;;;5.10;2.38;;;;;;;2.98;49.29;96503.41;5082206;28;20048;-65
2022/02/14 06:55:06;;;;;;;5.57;2.20;;;;;;;3.04;49.42;96505.19;5085211;28;20035;-64
2022/02/14 06:57:33;;;;;;;7.13;3.38;;;;;;;3.02;49.54;96509.94;5087802;28;20047;-65
2022/02/14 07:00:00;;;;;;;4.63;2.38;;;;;;;2.99;49.79;96513.88;5070440;28;20435;-65
2022/02/14 07:02:26;;;;;;;6.07;2.20;;;;;;;2.99;49.75;96508.53;5083489;28;20093;-65
2022/02/14 07:04:58;;;;;;;4.15;1.98;;;;;;;3.01;49.89;96510.16;5078128;28;20086;-65
2022/02/14 07:07:25;;;;;;;5.35;2.10;;;;;;;2.98;49.75;96509.56;5075617;28;20420;-64
2022/02/14 07:09:52;;;;;;;4.55;1.95;;;;;;;3.03;49.75;96505.41;5080797;28;20074;-64
2022/02/14 07:12:18;;;;;;;4.60;1.92;;;;;;;3.06;50.23;96510.31;5078547;28;20052;-65
2022/02/14 07:14:45;;;;;;;4.30;1.73;;;;;;;3.12;49.67;96512.06;5090289;28;20055;-65
2022/02/14 07:17:13;;;;;;;5.05;1.90;;;;;;;3.15;49.27;96518.84;5102874;28;20752;-65
2022/02/14 07:19:41;;;;;;;6.20;1.80;;;;;;;3.26;49.02;96512.72;5068540;28;20616;-65
2022/02/14 07:22:08;;;;;;;7.05;3.05;;;;;;;3.34;48.70;96520.44;5084297;28;20044;-65
2022/02/14 07:24:34;;;;;;;8.43;2.28;;;;;;;3.36;49.23;96520.22;5083774;28;20043;-65
2022/02/14 07:27:01;;;;;;;4.30;2.05;;;;;;;3.35;49.33;96518.56;5084571;28;20538;-64
2022/02/14 07:29:28;;;;;;;9.82;2.17;;;;;;;3.37;49.41;96519.16;5084978;28;20048;-64
2022/02/14 07:31:54;;;;;;;3.83;1.98;;;;;;;3.44;49.55;96511.88;5084839;28;20789;-65
2022/02/14 07:34:22;;;;;;;5.60;1.77;;;;;;;3.45;49.16;96508.16;5084778;28;20059;-65
2022/02/14 07:36:49;;;;;;;5.47;2.17;;;;;;;3.54;49.46;96513.97;5081872;28;20097;-65
2022/02/14 07:39:15;;;;;;;6.72;2.20;;;;;;;3.56;49.17;96516.44;5084433;28;20063;-64
2022/02/14 07:41:42;;;;;;;5.07;2.30;;;;;;;3.58;49.23;96515.16;5086381;28;20052;-65
2022/02/14 07:44:12;;;;;;;5.80;2.15;;;;;;;3.68;49.16;96524.53;5084836;28;20139;-65
2022/02/14 07:46:38;;;;;;;3.78;1.85;;;;;;;3.69;49.38;96520.78;5086142;28;20123;-65
2022/02/14 07:49:05;;;;;;;4.53;2.25;;;;;;;3.74;49.07;96520.91;5086581;28;20560;-64
2022/02/14 07:51:34;;;;;;;6.45;2.03;;;;;;;3.77;48.96;96521.25;5085742;28;20052;-67
2022/02/14 07:54:01;;;;;;;5.25;2.10;;;;;;;3.82;49.51;96531.28;5086570;28;20055;-65
2022/02/14 07:56:27;;;;;;;4.47;1.90;;;;;;;3.88;48.62;96526.88;5086014;28;20059;-64
2022/02/14 07:58:55;;;;;;;4.28;2.08;;;;;;;3.99;48.62;96520.75;5086398;28;20040;-65
2022/02/14 08:01:22;;;;;;;4.10;2.05;;;;;;;4.07;48.33;96519.59;5086567;28;20125;-65
2022/02/14 08:03:48;;;;;;;6.47;2.58;;;;;;;4.17;47.88;96510.97;5085918;28;20581;-64
2022/02/14 08:06:29;;;;;;;5.45;2.20;;;;;;;4.26;48.21;96517.63;5086206;28;20059;-63
2022/02/14 08:08:56;;;;;;;4.13;2.10;;;;;;;4.35;47.92;96509.25;5086570;28;20044;-64
2022/02/14 08:11:23;;;;;;;5.25;2.25;;;;;;;4.35;47.62;96501.19;5086009;28;20608;-65
2022/02/14 08:13:49;;;;;;;6.25;2.20;;;;;;;4.41;48.00;96510.97;5086198;28;20036;-64
2022/02/14 08:16:16;;;;;;;4.30;2.22;;;;;;;4.50;47.77;96501.53;5085446;28;20427;-65
2022/02/14 08:18:43;;;;;;;5.60;2.10;;;;;;;4.68;47.62;96497.06;5074059;28;20098;-65
2022/02/14 08:21:09;;;;;;;7.80;2.63;;;;;;;4.84;47.09;96500.91;5065931;28;20500;-65
2022/02/14 08:23:36;;;;;;;6.88;2.58;;;;;;;5.00;47.19;96490.47;5065438;28;20045;-63
2022/02/14 08:26:02;;;;;;;5.50;2.42;;;;;;;5.12;46.84;96485.88;5066160;28;20562;-65
2022/02/14 08:28:29;;;;;;;6.47;2.65;;;;;;;5.24;47.04;96483.19;5065764;28;20077;-64
2022/02/14 08:30:55;;;;;;;5.88;2.15;;;;;;;5.41;46.63;96488.59;5065310;28;20040;-65
2022/02/14 08:33:24;;;;;;;4.82;2.22;;;;;;;5.44;46.41;96481.91;5082891;28;20122;-65
2022/02/14 08:35:52;;;;;;;3.83;1.83;;;;;;;5.38;47.15;96478.31;5085098;28;20110;-65
2022/02/14 08:38:19;;;;;;;7.72;1.80;;;;;;;5.46;47.40;96480.63;5081329;28;20059;-65
2022/02/14 08:40:45;;;;;;;2.67;1.42;;;;;;;5.64;46.78;96494.88;5083528;28;20050;-65
2022/02/14 08:43:12;;;;;;;3.40;1.83;;;;;;;5.92;45.82;96487.84;5087061;28;20063;-65
2022/02/14 08:46:00;;;;;;;6.80;2.10;;;;;;;6.17;45.75;96477.75;5071288;28;20048;-63
2022/02/14 08:48:30;;;;;;;4.18;1.60;;;;;;;6.47;45.16;96487.34;5075096;28;20044;-65
2022/02/14 08:50:56;;;;;;;4.68;1.67;;;;;;;6.63;44.77;96481.13;5083330;28;20048;-64
2022/02/14 08:53:24;;;;;;;4.15;1.98;;;;;;;6.73;44.80;96480.44;5083350;28;20562;-64
2022/02/14 08:55:51;;;;;;;3.60;1.80;;;;;;;6.83;44.35;96482.47;5076240;28;20033;-65
2022/02/14 08:58:21;;;;;;;6.47;2.30;;;;;;;6.91;44.13;96475.81;5070868;28;20047;-65
2022/02/14 09:00:50;;;;;;;4.90;2.00;;;;;;;6.75;44.59;96477.50;5097924;28;20121;-66
2022/02/14 09:03:16;;;;;;;4.32;2.03;;;;;;;6.70;44.88;96464.78;5083316;28;20044;-65
2022/02/14 09:05:44;;;;;;;6.22;1.98;;;;;;;6.74;45.35;96473.16;5083227;28;20080;-65
2022/02/14 09:08:10;;;;;;;5.60;2.13;;;;;;;6.72;45.28;96472.63;5097395;28;20696;-65
2022/02/14 09:10:37;;;;;;;4.30;1.92;;;;;;;6.75;45.03;96462.16;5083723;28;20518;-64
2022/02/14 09:13:04;;;;;;;3.50;1.85;;;;;;;6.86;45.67;96456.91;5100065;28;20108;-64
2022/02/14 09:15:34;;;;;;;4.07;2.03;;;;;;;6.94;46.03;96444.91;5091549;28;20123;-65
2022/02/14 09:18:01;;;;;;;7.28;2.08;;;;;;;6.98;46.15;96443.31;5080917;28;20047;-66
2022/02/14 09:20:27;;;;;;;5.47;2.25;;;;;;;6.99;46.35;96447.63;5081041;28;20653;-65
2022/02/14 09:22:54;;;;;;;5.45;2.03;;;;;;;7.00;46.33;96449.25;5085528;28;20050;-65
2022/02/14 09:25:21;;;;;;;4.53;1.70;;;;;;;7.11;46.96;96434.84;5091895;28;20668;-64
2022/02/14 09:27:48;;;;;;;4.97;1.90;;;;;;;7.13;47.25;96440.00;5070589;28;20089;-65
2022/02/14 09:30:15;;;;;;;6.65;2.28;;;;;;;7.25;46.99;96439.84;5083390;28;20043;-64
2022/02/14 09:32:42;;;;;;;5.68;1.80;;;;;;;7.29;47.25;96449.03;5081959;28;20056;-64
2022/02/14 09:35:09;;;;;;;6.43;2.42;;;;;;;7.24;47.32;96447.13;5083611;28;20047;-65
2022/02/14 09:37:36;;;;;;;6.97;2.25;;;;;;;7.40;46.91;96439.19;5096293;28;20055;-65
2022/02/14 09:40:04;;;;;;;5.90;2.22;;;;;;;7.39;47.37;96440.25;5075165;28;20566;-64
2022/02/14 09:42:39;;;;;;;9.35;2.78;;;;;;;7.43;47.31;96438.69;5083212;28;20051;-64
2022/02/14 09:45:07;;;;;;;7.80;2.33;;;;;;;7.45;47.29;96441.13;5083183;28;20157;-64
2022/02/14 09:47:33;;;;;;;11.27;2.20;;;;;;;7.50;47.54;96433.91;5098919;28;20044;-65
2022/02/14 09:50:00;;;;;;;8.63;1.73;;;;;;;7.55;47.26;96433.13;5086883;28;20059;-65
2022/02/14 09:52:27;;;;;;;6.10;1.90;;;;;;;7.63;47.91;96445.34;5102678;28;20051;-65
2022/02/14 09:54:53;;;;;;;5.93;2.20;;;;;;;7.61;47.45;96434.00;5098257;28;20055;-65
2022/02/14 09:57:20;;;;;;;4.38;2.00;;;;;;;7.72;47.48;96437.59;5102900;28;20036;-64
2022/02/14 09:59:46;;;;;;;4.00;1.83;;;;;;;7.68;47.84;96435.38;5100990;28;20040;-65
2022/02/14 10:02:25;;;;;;;9.05;2.28;;;;;;;7.72;47.91;96434.88;5085439;28;20106;-64
2022/02/14 10:05:07;;;;;;;6.72;2.30;;;;;;;7.83;47.78;96442.00;5084374;28;20040;-64
2022/02/14 10:07:42;;;;;;;7.10;1.83;;;;;;;7.82;48.05;96445.78;5087957;28;20066;-65
2022/02/14 10:10:29;;;;;;;3.83;1.80;;;;;;;7.81;48.28;96438.72;5078785;28;20032;-65
2022/02/14 10:12:59;;;;;;;5.15;1.55;;;;;;;8.00;48.58;96444.53;5084253;28;20044;-65
2022/02/14 10:15:27;;;;;;;5.82;1.90;;;;;;;8.14;48.78;96436.03;5099762;28;20044;-65
2022/02/14 10:17:59;;;;;;;6.22;1.80;;;;;;;8.28;47.94;96442.59;5092507;28;20040;-65
2022/02/14 10:20:27;;;;;;;5.90;1.98;;;;;;;8.45;48.20;96439.72;5076728;28;20067;-65
2022/02/14 10:22:56;;;;;;;4.90;1.85;;;;;;;8.69;48.01;96441.22;5099271;28;20043;-65
2022/02/14 10:25:30;;;;;;;5.32;1.88;;;;;;;8.83;47.66;96445.06;5086758;28;20047;-65
2022/02/14 10:28:15;;;;;;;4.97;1.90;;;;;;;8.93;47.83;96441.59;5085730;28;20134;-65
2022/02/14 10:30:55;;;;;;;3.92;1.77;;;;;;;9.14;47.62;96449.75;5086370;28;20048;-65
2022/02/14 10:33:23;;;;;;;5.80;1.85;;;;;;;9.11;47.45;96448.41;5072082;28;20526;-64
2022/02/14 10:35:50;;;;;;;6.40;1.88;;;;;;;9.09;47.65;96444.34;5084204;28;20032;-65
2022/02/14 10:38:21;;;;;;;7.65;2.20;;;;;;;9.27;47.18;96444.94;5074593;28;20055;-64
2022/02/14 10:40:48;;;;;;;9.90;1.70;;;;;;;9.28;46.98;96447.38;5086045;28;20043;-65
2022/02/14 10:43:26;;;;;;;9.98;2.15;;;;;;;9.32;46.99;96434.16;5091584;28;20048;-64
2022/02/14 10:45:54;;;;;;;6.03;1.77;;;;;;;9.37;46.32;96436.88;5105734;28;20046;-64
2022/02/14 10:48:40;;;;;;;4.45;2.13;;;;;;;9.28;46.98;96430.38;5072624;28;20511;-65
2022/02/14 10:51:06;;;;;;;6.03;1.88;;;;;;;9.47;46.46;96436.06;5101880;28;20047;-65
2022/02/14 10:53:44;;;;;;;5.13;1.60;;;;;;;9.60;46.24;96430.13;5097805;28;20135;-64
2022/02/14 10:56:13;;;;;;;5.53;1.63;;;;;;;9.67;45.84;96434.47;5084568;28;20047;-65
2022/02/14 10:58:41;;;;;;;7.57;2.17;;;;;;;9.58;46.70;96424.19;5083118;28;20060;-65
2022/02/14 11:01:09;;;;;;;5.43;1.88;;;;;;;9.50;47.94;96422.81;5101840;28;20048;-65
2022/02/14 11:03:39;;;;;;;3.35;1.52;;;;;;;9.57;46.99;96411.75;5084855;28;20052;-65
2022/02/14 11:06:07;;;;;;;8.48;2.65;;;;;;;9.59;47.32;96404.19;5079793;28;20051;-64
2022/02/14 11:08:37;;;;;;;4.53;2.10;;;;;;;9.55;47.37;96407.69;5085526;28;20040;-65
2022/02/14 11:11:08;;;;;;;5.90;2.00;;;;;;;9.54;47.75;96395.28;5084966;28;20654;-65
2022/02/14 11:13:38;;;;;;;5.50;1.75;;;;;;;9.47;48.01;96403.66;5099046;28;20620;-65
2022/02/14 11:16:05;;;;;;;4.70;1.77;;;;;;;9.39;47.98;96404.19;5082602;28;20047;-65
2022/02/14 11:18:38;;;;;;;6.13;1.95;;;;;;;9.48;48.35;96397.16;5076915;28;20040;-66
2022/02/14 11:21:06;;;;;;;5.90;2.00;;;;;;;9.46;48.38;96402.00;5085070;28;20040;-65
2022/02/14 11:23:40;;;;;;;5.43;1.85;;;;;;;9.56;48.32;96393.09;5070491;28;20052;-65
2022/02/14 11:26:20;;;;;;;5.40;1.60;;;;;;;9.60;48.53;96394.19;5079137;28;20040;-65
2022/02/14 11:29:20;;;;;;;6.63;2.00;;;;;;;9.63;49.01;96391.75;5090355;28;20051;-66
2022/02/14 11:31:47;;;;;;;2.97;1.30;;;;;;;9.76;49.24;96392.28;5082700;28;20040;-66
2022/02/14 11:34:13;;;;;;;4.93;1.60;;;;;;;9.85;49.09;96387.94;5084874;28;20047;-65
2022/02/14 11:36:41;;;;;;;4.93;1.42;;;;;;;9.81;49.71;96386.06;5095753;28;20043;-66
2022/02/14 11:39:09;;;;;;;5.20;1.77;;;;;;;9.91;49.85;96382.56;5098075;28;20043;-66
2022/02/14 11:41:41;;;;;;;7.65;1.80;;;;;;;10.04;50.50;96381.19;5088596;28;20048;-65
2022/02/14 11:44:14;;;;;;;7.85;2.00;;;;;;;10.12;51.35;96386.03;5079360;28;20047;-65
2022/02/14 11:46:47;;;;;;;2.78;1.00;;;;;;;10.22;52.42;96375.22;5071076;28;20046;-66
2022/02/14 11:49:17;;;;;;;4.43;1.17;;;;;;;10.35;52.49;96367.56;5098704;28;20043;-65